createdAt,value
2019-04-03T00:00:50.679Z,20.90
2019-04-03T00:03:36.301Z,20.90
2019-04-03T00:06:22.357Z,20.90
2019-04-03T00:09:08.429Z,20.90
2019-04-03T00:11:54.740Z,20.80
2019-04-03T00:14:42.942Z,20.80
2019-04-03T00:17:29.217Z,20.80
2019-04-03T00:20:18.207Z,20.80
2019-04-03T00:23:03.036Z,20.80
2019-04-03T00:25:48.733Z,20.80
2019-04-03T00:28:34.996Z,20.80
2019-04-03T00:31:22.954Z,20.80
2019-04-03T00:34:08.354Z,20.80
2019-04-03T00:36:53.972Z,20.80
2019-04-03T00:39:40.395Z,20.80
2019-04-03T00:42:26.564Z,20.80
2019-04-03T00:45:12.386Z,20.80
2019-04-03T00:47:58.175Z,20.80
2019-04-03T00:50:44.335Z,20.70
2019-04-03T00:53:29.919Z,20.70
2019-04-03T00:56:16.088Z,20.70
2019-04-03T00:59:01.794Z,20.70
2019-04-03T01:01:48.184Z,20.70
2019-04-03T01:04:33.759Z,20.70
2019-04-03T01:07:19.571Z,20.70
2019-04-03T01:10:05.334Z,20.70
2019-04-03T01:12:51.577Z,20.70
2019-04-03T01:15:37.657Z,20.70
2019-04-03T01:18:23.611Z,20.70
2019-04-03T01:21:09.285Z,20.70
2019-04-03T01:23:55.411Z,20.70
2019-04-03T01:26:41.284Z,20.70
2019-04-03T01:29:27.231Z,20.70
2019-04-03T01:32:15.134Z,20.70
2019-04-03T01:35:00.467Z,20.70
2019-04-03T01:37:46.229Z,20.70
2019-04-03T01:40:32.011Z,20.70
2019-04-03T01:43:18.045Z,20.70
2019-04-03T01:46:03.952Z,20.70
2019-04-03T01:48:50.093Z,20.60
2019-04-03T01:51:36.363Z,20.60
2019-04-03T01:54:22.020Z,20.70
2019-04-03T01:57:07.715Z,20.60
2019-04-03T01:59:53.923Z,20.60
2019-04-03T02:02:40.509Z,20.60
2019-04-03T02:05:26.578Z,20.60
2019-04-03T02:08:14.735Z,20.60
2019-04-03T02:11:00.363Z,20.60
2019-04-03T02:13:46.984Z,20.60
2019-04-03T02:16:33.370Z,20.60
2019-04-03T02:19:19.281Z,20.60
2019-04-03T02:22:04.827Z,20.60
2019-04-03T02:24:51.127Z,20.60
2019-04-03T02:27:36.817Z,20.60
2019-04-03T02:30:22.965Z,20.60
2019-04-03T02:33:08.491Z,20.60
2019-04-03T02:35:55.528Z,20.60
2019-04-03T02:38:43.296Z,20.60
2019-04-03T02:41:30.324Z,20.60
2019-04-03T02:44:19.100Z,20.60
2019-04-03T02:47:04.140Z,20.60
2019-04-03T02:49:49.817Z,20.60
2019-04-03T02:52:35.555Z,20.60
2019-04-03T02:55:21.321Z,20.60
2019-04-03T02:58:07.987Z,20.60
2019-04-03T03:00:53.605Z,20.60
2019-04-03T03:03:40.659Z,20.60
2019-04-03T03:06:26.679Z,20.50
2019-04-03T03:09:13.591Z,20.60
2019-04-03T03:12:01.273Z,20.60
2019-04-03T03:14:47.728Z,20.60
2019-04-03T03:17:34.092Z,20.50
2019-04-03T03:20:22.765Z,20.50
2019-04-03T03:23:08.937Z,20.50
2019-04-03T03:25:56.044Z,20.50
2019-04-03T03:28:45.606Z,20.50
2019-04-03T03:31:59.433Z,20.50
2019-04-03T03:34:43.838Z,20.50
2019-04-03T03:37:11.857Z,20.50
2019-04-03T03:39:55.450Z,20.50
2019-04-03T03:42:41.909Z,20.50
2019-04-03T03:45:29.466Z,20.50
2019-04-03T03:48:16.321Z,20.50
2019-04-03T03:51:03.368Z,20.50
2019-04-03T03:53:49.741Z,20.50
2019-04-03T03:56:35.622Z,20.50
2019-04-03T03:59:21.722Z,20.50
2019-04-03T04:02:07.507Z,20.50
2019-04-03T04:04:54.278Z,20.50
2019-04-03T04:07:40.348Z,20.50
2019-04-03T04:10:28.564Z,20.50
2019-04-03T04:13:16.315Z,20.50
2019-04-03T04:16:04.898Z,20.50
2019-04-03T04:18:51.066Z,20.50
2019-04-03T04:21:37.533Z,20.50
2019-04-03T04:24:23.564Z,20.50
2019-04-03T04:27:09.937Z,20.50
2019-04-03T04:29:55.973Z,20.50
2019-04-03T04:32:41.947Z,20.50
2019-04-03T04:35:27.432Z,20.50
2019-04-03T04:38:13.412Z,20.50
2019-04-03T04:41:01.302Z,20.50
2019-04-03T04:43:47.019Z,20.50
2019-04-03T04:46:33.356Z,20.50
2019-04-03T04:49:19.226Z,20.50
2019-04-03T04:52:04.795Z,20.50
2019-04-03T04:54:50.951Z,20.50
2019-04-03T04:57:36.833Z,20.50
2019-04-03T05:00:23.119Z,20.50
2019-04-03T05:03:09.244Z,20.50
2019-04-03T05:05:57.235Z,20.50
2019-04-03T05:08:42.500Z,20.50
2019-04-03T05:11:28.652Z,20.50
2019-04-03T05:14:15.848Z,20.50
2019-04-03T05:17:01.976Z,20.60
2019-04-03T05:19:48.933Z,20.60
2019-04-03T05:22:35.092Z,20.60
2019-04-03T05:25:21.331Z,20.60
2019-04-03T05:28:06.972Z,20.60
2019-04-03T05:30:52.596Z,20.60
2019-04-03T05:33:41.222Z,20.60
2019-04-03T05:36:26.065Z,20.60
2019-04-03T05:39:12.477Z,20.60
2019-04-03T05:41:59.536Z,20.60
2019-04-03T05:44:45.933Z,20.70
2019-04-03T05:47:32.044Z,20.70
2019-04-03T05:50:17.937Z,20.70
2019-04-03T05:53:05.638Z,20.70
2019-04-03T05:55:51.768Z,20.70
2019-04-03T05:58:37.866Z,20.80
2019-04-03T06:01:23.811Z,20.80
2019-04-03T06:04:10.266Z,20.80
2019-04-03T06:06:56.733Z,20.90
2019-04-03T06:09:42.782Z,21.00
2019-04-03T06:12:28.550Z,21.00
2019-04-03T06:15:14.821Z,21.10
2019-04-03T06:18:00.843Z,21.10
2019-04-03T06:20:46.514Z,21.00
2019-04-03T06:23:32.356Z,21.00
2019-04-03T06:26:18.092Z,21.10
2019-04-03T06:29:04.226Z,21.00
2019-04-03T06:31:51.873Z,21.00
2019-04-03T06:34:38.889Z,21.00
2019-04-03T06:37:25.694Z,21.10
2019-04-03T06:40:12.128Z,21.10
2019-04-03T06:42:57.991Z,21.10
2019-04-03T06:45:44.377Z,21.20
2019-04-03T06:48:30.235Z,21.20
2019-04-03T06:51:16.857Z,21.20
2019-04-03T06:54:03.074Z,21.20
2019-04-03T06:56:48.880Z,21.30
2019-04-03T06:59:34.983Z,21.50
2019-04-03T07:02:21.453Z,21.60
2019-04-03T07:05:09.643Z,21.70
2019-04-03T07:07:55.419Z,21.80
2019-04-03T07:10:40.981Z,21.80
2019-04-03T07:13:29.587Z,21.80
2019-04-03T07:16:14.484Z,21.80
2019-04-03T07:19:00.707Z,21.80
2019-04-03T07:21:46.385Z,21.70
2019-04-03T07:24:32.876Z,21.80
2019-04-03T07:27:18.720Z,21.80
2019-04-03T07:30:06.027Z,21.90
2019-04-03T07:32:52.007Z,22.00
2019-04-03T07:35:39.260Z,22.00
2019-04-03T07:38:25.619Z,22.00
2019-04-03T07:41:11.291Z,22.00
2019-04-03T07:43:58.902Z,22.00
2019-04-03T07:46:45.083Z,22.00
2019-04-03T07:49:32.152Z,22.00
2019-04-03T07:52:17.896Z,22.00
2019-04-03T07:55:04.327Z,22.10
2019-04-03T07:57:50.624Z,22.20
2019-04-03T08:00:38.528Z,22.40
2019-04-03T08:03:24.508Z,22.50
2019-04-03T08:06:10.123Z,22.50
2019-04-03T08:09:06.929Z,22.50
2019-04-03T08:11:43.528Z,22.50
2019-04-03T08:14:29.392Z,22.40
2019-04-03T08:17:18.083Z,22.30
2019-04-03T08:20:04.192Z,22.30
2019-04-03T08:22:50.104Z,22.30
2019-04-03T08:25:36.209Z,22.40
2019-04-03T08:28:21.910Z,22.40
2019-04-03T08:31:10.859Z,22.50
2019-04-03T08:33:55.389Z,22.60
2019-04-03T08:36:41.755Z,22.60
2019-04-03T08:39:27.367Z,22.70
2019-04-03T08:42:13.059Z,22.60
2019-04-03T08:44:58.651Z,22.60
2019-04-03T08:47:46.323Z,22.60
2019-04-03T08:50:33.040Z,22.60
2019-04-03T08:53:18.959Z,22.60
2019-04-03T08:56:04.976Z,22.70
2019-04-03T08:58:50.803Z,22.70
2019-04-03T09:01:37.305Z,22.80
2019-04-03T09:04:23.226Z,22.80
2019-04-03T09:07:09.290Z,22.90
2019-04-03T09:09:54.911Z,23.00
2019-04-03T09:12:40.706Z,23.10
2019-04-03T09:15:28.245Z,23.20
2019-04-03T09:18:14.019Z,23.20
2019-04-03T09:21:00.116Z,23.30
2019-04-03T09:23:45.971Z,23.30
2019-04-03T09:26:36.681Z,23.40
2019-04-03T09:29:20.103Z,23.40
2019-04-03T09:32:06.343Z,23.40
2019-04-03T09:34:51.978Z,23.40
2019-04-03T09:37:38.732Z,23.50
2019-04-03T09:40:24.971Z,23.50
2019-04-03T09:43:10.693Z,23.50
2019-04-03T09:45:59.161Z,23.50
2019-04-03T09:48:43.915Z,23.50
2019-04-03T09:51:30.580Z,23.60
2019-04-03T09:54:16.783Z,23.50
2019-04-03T09:57:04.880Z,23.50
2019-04-03T09:59:50.801Z,23.60
2019-04-03T10:02:38.019Z,23.60
2019-04-03T10:05:23.850Z,23.60
2019-04-03T10:08:09.917Z,23.50
2019-04-03T10:10:55.890Z,23.50
2019-04-03T10:13:41.753Z,23.50
2019-04-03T10:16:28.013Z,23.50
2019-04-03T10:19:14.667Z,23.50
2019-04-03T10:22:00.921Z,23.40
2019-04-03T10:24:46.577Z,23.40
2019-04-03T10:27:32.507Z,23.40
2019-04-03T10:30:20.789Z,23.40
2019-04-03T10:33:07.136Z,23.40
2019-04-03T10:35:52.711Z,23.40
2019-04-03T10:38:40.430Z,23.30
2019-04-03T10:41:28.707Z,23.30
2019-04-03T10:44:13.924Z,23.30
2019-04-03T10:46:59.483Z,23.30
2019-04-03T10:49:45.241Z,23.30
2019-04-03T10:52:32.295Z,23.30
2019-04-03T10:55:18.242Z,23.30
2019-04-03T10:58:04.971Z,23.20
2019-04-03T11:00:52.604Z,23.20
2019-04-03T11:03:38.565Z,23.20
2019-04-03T11:06:24.286Z,23.10
2019-04-03T11:09:10.264Z,23.10
2019-04-03T11:11:56.339Z,23.10
2019-04-03T11:14:42.484Z,23.10
2019-04-03T11:17:28.492Z,23.00
2019-04-03T11:20:15.082Z,23.00
2019-04-03T11:23:06.323Z,23.00
2019-04-03T11:25:48.586Z,23.00
2019-04-03T11:28:37.264Z,23.00
2019-04-03T11:31:27.086Z,23.00
2019-04-03T11:34:10.536Z,23.00
2019-04-03T11:36:57.988Z,23.00
2019-04-03T11:39:46.241Z,23.00
2019-04-03T11:42:32.094Z,23.00
2019-04-03T11:45:18.344Z,23.00
2019-04-03T11:48:04.184Z,23.00
2019-04-03T11:50:50.238Z,23.00
2019-04-03T11:53:36.323Z,23.00
2019-04-03T11:56:22.047Z,23.00
2019-04-03T11:59:10.668Z,23.00
2019-04-03T12:01:56.575Z,23.00
2019-04-03T12:04:44.453Z,23.00
2019-04-03T12:07:32.720Z,23.00
2019-04-03T12:10:18.366Z,23.00
2019-04-03T12:13:04.728Z,23.00
2019-04-03T12:15:53.219Z,23.00
2019-04-03T12:18:38.683Z,23.00
2019-04-03T12:21:24.859Z,23.00
2019-04-03T12:24:11.067Z,23.00
2019-04-03T12:26:56.810Z,23.00
2019-04-03T12:29:43.276Z,23.00
2019-04-03T12:32:37.007Z,22.90
2019-04-03T12:35:17.495Z,23.00
2019-04-03T12:38:03.515Z,23.00
2019-04-03T12:40:49.724Z,22.90
2019-04-03T12:43:35.542Z,22.90
2019-04-03T12:46:40.981Z,22.90
2019-04-03T12:49:26.833Z,22.90
2019-04-03T12:52:14.150Z,22.90
2019-04-03T12:55:00.834Z,22.90
2019-04-03T12:57:46.483Z,22.90
2019-04-03T13:00:32.716Z,22.80
2019-04-03T13:03:19.356Z,22.80
2019-04-03T13:06:06.975Z,22.80
2019-04-03T13:08:53.295Z,22.80
2019-04-03T13:11:39.759Z,22.80
2019-04-03T13:14:27.131Z,22.80
2019-04-03T13:17:14.542Z,22.80
2019-04-03T13:20:04.328Z,22.80
2019-04-03T13:22:49.979Z,22.70
2019-04-03T13:25:36.116Z,22.70
2019-04-03T13:28:21.923Z,22.70
2019-04-03T13:31:07.830Z,22.70
2019-04-03T13:33:56.925Z,22.70
2019-04-03T13:36:43.519Z,22.70
2019-04-03T13:39:29.156Z,22.70
2019-04-03T13:42:14.768Z,22.70
2019-04-03T13:45:00.376Z,22.60
2019-04-03T13:47:47.028Z,22.60
2019-04-03T13:50:33.644Z,22.60
2019-04-03T13:53:20.615Z,22.60
2019-04-03T13:56:10.246Z,22.60
2019-04-03T13:58:55.101Z,22.50
2019-04-03T14:01:41.794Z,22.50
2019-04-03T14:04:29.117Z,22.50
2019-04-03T14:07:15.654Z,22.50
2019-04-03T14:10:02.261Z,22.50
2019-04-03T14:12:48.935Z,22.60
2019-04-03T14:15:36.006Z,22.60
2019-04-03T14:18:22.859Z,22.60
2019-04-03T14:21:09.033Z,22.60
2019-04-03T14:23:56.808Z,22.60
2019-04-03T14:26:45.178Z,22.60
2019-04-03T14:29:31.578Z,22.60
2019-04-03T14:32:19.844Z,22.60
2019-04-03T14:35:31.678Z,22.60
2019-04-03T14:37:53.283Z,22.50
2019-04-03T14:40:43.505Z,22.50
2019-04-03T14:43:29.153Z,22.40
2019-04-03T14:46:17.307Z,22.40
2019-04-03T14:49:03.242Z,22.30
2019-04-03T14:51:49.655Z,22.30
2019-04-03T14:54:36.025Z,22.20
2019-04-03T14:57:23.704Z,22.20
2019-04-03T15:00:25.283Z,22.20
2019-04-03T15:02:59.387Z,22.10
2019-04-03T15:05:45.639Z,22.00
2019-04-03T15:08:31.368Z,21.90
2019-04-03T15:11:18.058Z,21.80
2019-04-03T15:14:05.451Z,21.70
2019-04-03T15:16:51.074Z,21.70
2019-04-03T15:19:37.151Z,21.60
2019-04-03T15:22:22.952Z,21.60
2019-04-03T15:25:08.882Z,21.60
2019-04-03T15:27:54.888Z,21.60
2019-04-03T15:30:43.390Z,21.60
2019-04-03T15:33:28.944Z,21.50
2019-04-03T15:36:14.890Z,21.50
2019-04-03T15:39:00.779Z,21.50
2019-04-03T15:41:46.319Z,21.50
2019-04-03T15:44:32.037Z,21.40
2019-04-03T15:47:20.658Z,21.40
2019-04-03T15:50:07.394Z,21.40
2019-04-03T15:52:53.648Z,21.30
2019-04-03T15:55:39.596Z,21.30
2019-04-03T15:58:27.095Z,21.20
2019-04-03T16:01:13.095Z,21.20
2019-04-03T16:04:00.031Z,21.20
2019-04-03T16:06:46.173Z,21.20
2019-04-03T16:09:32.232Z,21.10
2019-04-03T16:12:18.945Z,21.10
2019-04-03T16:15:08.514Z,21.10
2019-04-03T16:17:54.378Z,21.10
2019-04-03T16:20:40.428Z,21.00
2019-04-03T16:23:26.332Z,21.00
2019-04-03T16:26:12.602Z,21.00
2019-04-03T16:28:58.709Z,20.90
2019-04-03T16:31:45.099Z,20.90
2019-04-03T16:34:31.271Z,20.90
2019-04-03T16:37:16.805Z,20.90
2019-04-03T16:40:05.006Z,20.90
2019-04-03T16:42:53.656Z,20.80
2019-04-03T16:45:40.032Z,20.80
2019-04-03T16:48:25.665Z,20.80
2019-04-03T16:51:11.476Z,20.80
2019-04-03T16:53:59.530Z,20.70
2019-04-03T16:56:45.283Z,20.70
2019-04-03T16:59:31.799Z,20.70
2019-04-03T17:02:18.942Z,20.60
2019-04-03T17:05:06.217Z,20.60
2019-04-03T17:07:54.321Z,20.60
2019-04-03T17:10:41.077Z,20.60
2019-04-03T17:13:27.219Z,20.60
2019-04-03T17:16:15.069Z,20.60
2019-04-03T17:19:01.207Z,20.50
2019-04-03T17:21:47.322Z,20.50
2019-04-03T17:24:42.342Z,20.50
2019-04-03T17:27:20.712Z,20.50
2019-04-03T17:30:07.407Z,20.50
2019-04-03T17:32:54.162Z,20.50
2019-04-03T17:35:40.359Z,20.60
2019-04-03T17:38:26.356Z,20.50
2019-04-03T17:41:12.539Z,20.50
2019-04-03T17:43:58.084Z,20.60
2019-04-03T17:46:44.015Z,20.60
2019-04-03T17:49:30.084Z,20.60
2019-04-03T17:52:16.223Z,20.60
2019-04-03T17:55:01.885Z,20.60
2019-04-03T17:57:47.616Z,20.60
2019-04-03T18:00:33.603Z,20.60
2019-04-03T18:03:19.503Z,20.60
2019-04-03T18:06:06.105Z,20.60
2019-04-03T18:08:52.367Z,20.60
2019-04-03T18:11:38.449Z,20.60
2019-04-03T18:14:26.561Z,20.60
2019-04-03T18:17:14.839Z,20.60
2019-04-03T18:20:01.196Z,20.60
2019-04-03T18:22:50.431Z,20.60
2019-04-03T18:25:39.079Z,20.60
2019-04-03T18:28:35.496Z,20.60
2019-04-03T18:31:28.042Z,20.60
2019-04-03T18:34:16.175Z,20.60
2019-04-03T18:37:04.082Z,20.60
2019-04-03T18:39:51.448Z,20.60
2019-04-03T18:42:37.595Z,20.60
2019-04-03T18:45:25.361Z,20.60
2019-04-03T18:48:11.003Z,20.60
2019-04-03T18:50:56.627Z,20.60
2019-04-03T18:53:42.491Z,20.60
2019-04-03T18:56:28.530Z,20.60
2019-04-03T18:59:15.361Z,20.60
2019-04-03T19:02:03.563Z,20.60
2019-04-03T19:05:01.073Z,20.60
2019-04-03T19:07:38.507Z,20.60
2019-04-03T19:10:24.541Z,20.60
2019-04-03T19:13:13.610Z,20.60
2019-04-03T19:16:01.901Z,20.60
2019-04-03T19:18:48.588Z,20.60
2019-04-03T19:21:35.843Z,20.60
2019-04-03T19:24:24.446Z,20.60
2019-04-03T19:27:09.774Z,20.60
2019-04-03T19:29:55.339Z,20.60
2019-04-03T19:32:43.349Z,20.50
2019-04-03T19:35:29.655Z,20.60
2019-04-03T19:38:15.614Z,20.50
2019-04-03T19:41:01.292Z,20.60
2019-04-03T19:43:47.510Z,20.50
2019-04-03T19:46:33.571Z,20.50
2019-04-03T19:49:19.911Z,20.60
2019-04-03T19:52:06.084Z,20.60
2019-04-03T19:54:53.207Z,20.60
2019-04-03T19:57:38.986Z,20.50
2019-04-03T20:00:24.992Z,20.50
2019-04-03T20:03:13.794Z,20.50
2019-04-03T20:05:59.873Z,20.50
2019-04-03T20:08:45.961Z,20.60
2019-04-03T20:11:32.325Z,20.60
2019-04-03T20:14:19.517Z,20.60
2019-04-03T20:17:05.882Z,20.50
2019-04-03T20:19:51.574Z,20.60
2019-04-03T20:22:40.638Z,20.50
2019-04-03T20:25:24.995Z,20.60
2019-04-03T20:28:11.322Z,20.60
2019-04-03T20:30:57.227Z,20.50
2019-04-03T20:33:43.007Z,20.60
2019-04-03T20:36:29.244Z,20.50
2019-04-03T20:39:15.093Z,20.50
2019-04-03T20:42:03.160Z,20.60
2019-04-03T20:44:48.864Z,20.60
2019-04-03T20:47:34.915Z,20.50
2019-04-03T20:50:21.175Z,20.60
2019-04-03T20:53:07.317Z,20.60
2019-04-03T20:55:53.079Z,20.60
2019-04-03T20:58:40.708Z,20.60
2019-04-03T21:01:26.899Z,20.60
2019-04-03T21:04:14.930Z,20.60
2019-04-03T21:07:00.654Z,20.60
2019-04-03T21:09:46.311Z,20.60
2019-04-03T21:12:32.122Z,20.60
2019-04-03T21:15:18.272Z,20.60
2019-04-03T21:18:04.053Z,20.60
2019-04-03T21:20:50.095Z,20.60
2019-04-03T21:23:37.388Z,20.60
2019-04-03T21:26:23.494Z,20.60
2019-04-03T21:29:09.695Z,20.60
2019-04-03T21:31:56.738Z,20.60
2019-04-03T21:34:43.747Z,20.60
2019-04-03T21:37:30.846Z,20.60
2019-04-03T21:40:17.035Z,20.60
2019-04-03T21:43:03.108Z,20.70
2019-04-03T21:45:49.455Z,20.60
2019-04-03T21:48:35.684Z,20.70
2019-04-03T21:51:22.140Z,20.70
2019-04-03T21:54:08.305Z,20.70
2019-04-03T21:56:54.516Z,20.70
2019-04-03T21:59:41.750Z,20.70
2019-04-03T22:02:28.402Z,20.70
2019-04-03T22:05:14.699Z,20.70
2019-04-03T22:08:00.921Z,20.70
2019-04-03T22:10:50.274Z,20.70
2019-04-03T22:13:38.226Z,20.70
2019-04-03T22:16:24.039Z,20.70
2019-04-03T22:19:10.191Z,20.70
2019-04-03T22:21:55.959Z,20.70
2019-04-03T22:24:42.187Z,20.70
2019-04-03T22:27:28.265Z,20.70
2019-04-03T22:30:14.539Z,20.70
2019-04-03T22:33:00.618Z,20.70
2019-04-03T22:35:47.379Z,20.70
2019-04-03T22:38:36.864Z,20.70
2019-04-03T22:41:22.424Z,20.70
2019-04-03T22:44:08.610Z,20.70
2019-04-03T22:46:54.923Z,20.70
2019-04-03T22:49:41.052Z,20.70
2019-04-03T22:52:27.402Z,20.70
2019-04-03T22:55:14.806Z,20.70
2019-04-03T22:58:01.272Z,20.70
2019-04-03T23:00:47.408Z,20.70
2019-04-03T23:03:33.878Z,20.70
2019-04-03T23:06:20.484Z,20.80
2019-04-03T23:09:07.416Z,20.80
2019-04-03T23:11:53.417Z,20.80
2019-04-03T23:14:39.921Z,20.80
2019-04-03T23:17:26.177Z,20.80
2019-04-03T23:20:12.331Z,20.80
2019-04-03T23:22:58.471Z,20.80
2019-04-03T23:25:44.351Z,20.80
2019-04-03T23:28:33.591Z,20.80
2019-04-03T23:31:18.279Z,20.80
2019-04-03T23:34:04.058Z,20.80
2019-04-03T23:36:50.472Z,20.80
2019-04-03T23:39:36.675Z,20.80
2019-04-03T23:42:23.084Z,20.80
2019-04-03T23:45:10.944Z,20.80
2019-04-03T23:47:57.103Z,20.80
2019-04-03T23:50:43.349Z,20.80
2019-04-03T23:53:31.794Z,20.80
2019-04-03T23:56:17.426Z,20.70
2019-04-03T23:59:03.786Z,20.80
